Time;durP1;ratioP1;P1;durP2;ratioP2;P2;SDS_P1;SDS_P2;PMS_P1;PMS_P2;Temp;Humidity;BMP_temperature;BMP_pressure;BME280_temperature;BME280_humidity;BME280_pressure;Samples;Min_cycle;Max_cycle;Signal;HPM_P1;HPM_P2
2023/03/29 00:01:59;;;;;;;6.95;4.25;;;3.70;91.70;;;;;;4931733;28;20059;-66
2023/03/29 00:04:26;;;;;;;5.70;2.95;;;3.60;92.30;;;;;;4935789;28;20560;-67
2023/03/29 00:06:53;;;;;;;8.13;3.53;;;3.50;92.80;;;;;;4936319;28;20027;-67
2023/03/29 00:09:19;;;;;;;7.78;3.60;;;3.30;93.40;;;;;;4935174;28;21961;-67
2023/03/29 00:11:45;;;;;;;3.65;1.90;;;3.30;93.00;;;;;;4892929;28;20035;-67
2023/03/29 00:14:12;;;;;;;10.45;3.60;;;3.30;93.30;;;;;;4926399;28;20035;-66
2023/03/29 00:16:38;;;;;;;7.50;3.65;;;3.20;93.70;;;;;;4907214;28;20043;-66
2023/03/29 00:19:05;;;;;;;5.28;2.35;;;3.30;92.90;;;;;;4917722;28;20031;-67
2023/03/29 00:21:31;;;;;;;4.18;2.35;;;3.30;92.70;;;;;;4935847;28;20118;-66
2023/03/29 00:23:57;;;;;;;5.18;2.25;;;3.30;92.90;;;;;;4935968;28;20143;-66
2023/03/29 00:26:22;;;;;;;4.22;2.00;;;3.20;93.20;;;;;;4938824;28;20480;-66
2023/03/29 00:28:48;;;;;;;4.20;1.90;;;3.10;93.00;;;;;;4932707;28;20038;-66
2023/03/29 00:31:18;;;;;;;4.13;2.20;;;3.20;92.70;;;;;;4932393;28;20035;-66
2023/03/29 00:33:44;;;;;;;3.47;2.28;;;3.20;93.30;;;;;;4939255;28;20031;-66
2023/03/29 00:36:11;;;;;;;2.78;1.65;;;3.10;93.70;;;;;;4935817;28;20114;-66
2023/03/29 00:38:37;;;;;;;2.47;1.27;;;2.90;93.50;;;;;;4933405;28;20050;-65
2023/03/29 00:41:05;;;;;;;2.22;1.48;;;2.70;93.20;;;;;;4933174;28;20035;-66
2023/03/29 00:43:49;;;;;;;1.83;1.10;;;2.70;92.90;;;;;;4933548;28;20042;-66
2023/03/29 00:46:15;;;;;;;1.52;1.05;;;2.70;92.80;;;;;;4928658;28;20050;-66
2023/03/29 00:48:41;;;;;;;1.50;1.02;;;2.70;92.70;;;;;;4937270;28;20031;-66
2023/03/29 00:51:10;;;;;;;1.40;0.95;;;2.70;92.60;;;;;;4937560;28;20019;-66
2023/03/29 00:53:40;;;;;;;3.17;1.80;;;2.60;92.80;;;;;;4935148;28;20035;-66
2023/03/29 00:56:12;;;;;;;2.92;2.00;;;2.60;93.30;;;;;;4931298;28;20028;-66
2023/03/29 00:58:42;;;;;;;;;;;2.50;94.50;;;;;;4938647;28;20110;-66
2023/03/29 01:01:18;;;;;;;1.20;0.85;;;2.40;94.40;;;;;;4933586;28;19915;-66
2023/03/29 01:04:05;;;;;;;1.55;1.20;;;2.40;94.70;;;;;;4937120;28;20039;-66
2023/03/29 01:06:34;;;;;;;2.03;1.45;;;2.40;93.90;;;;;;4931306;28;20027;-67
2023/03/29 01:09:06;;;;;;;25.95;15.43;;;2.60;92.80;;;;;;4937293;28;20532;-66
2023/03/29 01:11:50;;;;;;;11.75;7.13;;;2.60;93.40;;;;;;4934434;28;20174;-66
2023/03/29 01:14:49;;;;;;;11.85;7.03;;;2.60;93.50;;;;;;4930752;28;20050;-66
2023/03/29 01:17:15;;;;;;;4.82;3.10;;;2.60;93.20;;;;;;4927684;28;20043;-66
2023/03/29 01:19:50;;;;;;;6.90;4.30;;;2.60;93.80;;;;;;4931724;28;20680;-66
2023/03/29 01:22:53;;;;;;;136.25;77.93;;;2.40;94.30;;;;;;4932067;28;20039;-66
2023/03/29 01:25:50;;;;;;;35.35;23.27;;;2.20;94.90;;;;;;4932962;28;20060;-66
2023/03/29 01:28:24;;;;;;;10.35;6.55;;;2.20;94.60;;;;;;4925588;28;20579;-66
2023/03/29 01:31:02;;;;;;;6.07;3.85;;;2.30;93.90;;;;;;4927610;28;20582;-65
2023/03/29 01:33:36;;;;;;;3.42;2.63;;;2.40;93.50;;;;;;4928804;28;20321;-66
2023/03/29 01:36:20;;;;;;;2.42;1.55;;;2.50;93.80;;;;;;4926524;28;20027;-66
2023/03/29 01:39:04;;;;;;;1.42;1.00;;;2.30;93.90;;;;;;4927110;28;20034;-66
2023/03/29 01:42:01;;;;;;;0.82;0.63;;;2.20;93.40;;;;;;4929197;28;20027;-66
2023/03/29 01:44:36;;;;;;;1.33;0.93;;;2.10;93.40;;;;;;4931113;28;20051;-67
2023/03/29 01:47:12;;;;;;;2.33;1.17;;;2.20;93.40;;;;;;4926904;28;20570;-70
2023/03/29 01:49:44;;;;;;;0.98;0.73;;;2.20;93.70;;;;;;4930571;28;20062;-70
2023/03/29 01:52:19;;;;;;;2.63;1.00;;;2.20;94.30;;;;;;4931088;28;20087;-69
2023/03/29 01:54:51;;;;;;;2.50;1.13;;;2.10;94.50;;;;;;4930500;28;20127;-70
2023/03/29 01:57:18;;;;;;;1.20;0.95;;;2.10;94.40;;;;;;4928159;28;20559;-70
2023/03/29 01:59:46;;;;;;;1.95;1.08;;;2.10;94.50;;;;;;4937512;28;20500;-70
2023/03/29 02:02:15;;;;;;;1.90;1.67;;;2.20;94.00;;;;;;4932875;28;20070;-70
2023/03/29 02:04:49;;;;;;;1.33;1.05;;;2.20;94.20;;;;;;4939307;28;20685;-70
2023/03/29 02:07:19;;;;;;;0.60;0.50;;;2.00;95.20;;;;;;4944833;28;20046;-70
2023/03/29 02:09:47;;;;;;;2.92;1.58;;;1.70;95.30;;;;;;4943097;28;20035;-70
2023/03/29 02:12:15;;;;;;;2.88;1.08;;;1.80;95.10;;;;;;4939093;28;20066;-70
2023/03/29 02:14:41;;;;;;;1.88;0.98;;;1.90;94.70;;;;;;4939086;28;20023;-70
2023/03/29 02:17:22;;;;;;;1.50;0.90;;;1.90;94.20;;;;;;4933970;28;20634;-70
2023/03/29 02:19:59;;;;;;;1.38;1.13;;;1.80;94.20;;;;;;4943557;28;20082;-70
2023/03/29 02:22:36;;;;;;;1.25;0.73;;;1.90;94.40;;;;;;4943663;28;20042;-70
2023/03/29 02:25:05;;;;;;;0.93;0.70;;;1.90;94.30;;;;;;4940299;28;20392;-70
2023/03/29 02:27:33;;;;;;;1.05;0.85;;;1.80;95.20;;;;;;4943834;28;20106;-70
2023/03/29 02:29:58;;;;;;;1.35;1.00;;;1.80;94.90;;;;;;4938111;28;20456;-70
2023/03/29 02:32:55;;;;;;;1.33;1.05;;;1.80;94.80;;;;;;4932122;28;20171;-70
2023/03/29 02:35:33;;;;;;;1.70;0.95;;;1.70;95.40;;;;;;4939682;28;20055;-70
2023/03/29 02:38:02;;;;;;;6.88;4.70;;;1.70;95.70;;;;;;4943111;28;20038;-70
2023/03/29 02:40:29;;;;;;;2.22;1.77;;;1.70;96.00;;;;;;4942329;28;20037;-70
2023/03/29 02:42:56;;;;;;;4.68;1.00;;;1.70;95.90;;;;;;4942320;28;20027;-70
2023/03/29 02:45:24;;;;;;;1.80;0.80;;;1.70;95.70;;;;;;4936171;28;20522;-69
2023/03/29 02:47:54;;;;;;;3.85;0.90;;;1.70;95.30;;;;;;4941935;28;20027;-66
2023/03/29 02:50:22;;;;;;;3.90;1.35;;;1.60;94.90;;;;;;4936477;28;20034;-66
2023/03/29 02:52:55;;;;;;;1.98;1.20;;;1.60;95.00;;;;;;4943346;28;20059;-66
2023/03/29 02:55:24;;;;;;;2.08;0.85;;;1.60;95.40;;;;;;4941227;28;20031;-66
2023/03/29 02:57:50;;;;;;;11.15;5.65;;;1.60;95.50;;;;;;4944203;28;20649;-66
2023/03/29 03:00:18;;;;;;;4.85;3.40;;;1.50;95.30;;;;;;4940202;28;20088;-67
2023/03/29 03:02:45;;;;;;;2.53;2.33;;;1.50;95.10;;;;;;4940604;28;20028;-69
2023/03/29 03:05:11;;;;;;;2.30;1.42;;;1.30;95.30;;;;;;4940037;28;20047;-70
2023/03/29 03:07:39;;;;;;;1.95;1.13;;;1.30;95.70;;;;;;4939195;28;20027;-70
2023/03/29 03:10:06;;;;;;;1.10;1.00;;;1.20;95.70;;;;;;4942154;28;20042;-69
2023/03/29 03:12:32;;;;;;;2.53;1.00;;;1.20;96.50;;;;;;4936903;28;20507;-70
2023/03/29 03:14:58;;;;;;;2.05;1.05;;;1.20;96.40;;;;;;4938875;28;20039;-70
2023/03/29 03:17:24;;;;;;;6.55;5.95;;;1.30;96.30;;;;;;4935480;28;20074;-70
2023/03/29 03:19:49;;;;;;;1.95;1.50;;;1.30;95.70;;;;;;4939145;28;20044;-70
2023/03/29 03:22:15;;;;;;;2.08;1.20;;;1.40;95.80;;;;;;4936125;28;20512;-70
2023/03/29 03:24:41;;;;;;;2.08;1.08;;;1.40;95.70;;;;;;4938757;28;20060;-66
2023/03/29 03:27:07;;;;;;;1.48;1.00;;;1.30;95.70;;;;;;4941246;28;20440;-66
2023/03/29 03:29:34;;;;;;;2.63;1.55;;;1.30;95.90;;;;;;4933869;28;20059;-66
2023/03/29 03:32:00;;;;;;;1.08;0.90;;;1.30;95.90;;;;;;4937157;28;20042;-66
2023/03/29 03:34:26;;;;;;;1.33;0.73;;;1.30;95.70;;;;;;4930712;28;20019;-66
2023/03/29 03:36:54;;;;;;;2.90;1.88;;;1.20;95.80;;;;;;4937725;28;20027;-66
2023/03/29 03:39:20;;;;;;;2.45;1.75;;;1.20;96.20;;;;;;4934322;28;20031;-65
2023/03/29 03:41:46;;;;;;;2.25;1.63;;;1.20;96.90;;;;;;4935361;28;20023;-66
2023/03/29 03:44:12;;;;;;;2.63;1.75;;;1.20;97.50;;;;;;4936684;28;20042;-66
2023/03/29 03:46:37;;;;;;;2.85;2.42;;;1.20;97.60;;;;;;4938104;28;20693;-66
2023/03/29 03:49:03;;;;;;;4.00;2.20;;;1.20;97.30;;;;;;4934185;28;20115;-66
2023/03/29 03:51:30;;;;;;;1.98;1.33;;;1.20;97.50;;;;;;4939586;28;20511;-66
2023/03/29 03:53:55;;;;;;;1.50;1.30;;;1.10;97.50;;;;;;4935575;28;20066;-66
2023/03/29 03:56:22;;;;;;;1.52;1.20;;;1.10;98.20;;;;;;4937865;28;20137;-65
2023/03/29 03:58:47;;;;;;;3.13;1.38;;;1.10;98.10;;;;;;4936266;28;20031;-65
2023/03/29 04:01:13;;;;;;;2.47;1.35;;;1.10;97.90;;;;;;4933415;28;20024;-66
2023/03/29 04:03:39;;;;;;;4.63;1.27;;;1.10;97.70;;;;;;4938472;28;20039;-66
2023/03/29 04:06:05;;;;;;;1.67;0.88;;;1.10;97.90;;;;;;4933388;28;20733;-66
2023/03/29 04:08:31;;;;;;;1.38;1.10;;;1.10;98.10;;;;;;4938204;28;20082;-66
2023/03/29 04:10:58;;;;;;;1.75;1.02;;;1.00;98.10;;;;;;4931356;28;20043;-65
2023/03/29 04:13:25;;;;;;;1.80;1.27;;;1.10;98.20;;;;;;4937958;28;20551;-66
2023/03/29 04:15:54;;;;;;;2.15;1.17;;;1.10;97.80;;;;;;4933947;28;20031;-65
2023/03/29 04:18:20;;;;;;;4.60;1.50;;;1.20;97.40;;;;;;4935015;28;20067;-65
2023/03/29 04:20:46;;;;;;;1.42;1.13;;;1.30;97.20;;;;;;4938579;28;20184;-71
2023/03/29 04:23:13;;;;;;;2.88;1.40;;;1.30;97.10;;;;;;4937155;28;20058;-65
2023/03/29 04:25:39;;;;;;;4.68;1.52;;;1.20;97.80;;;;;;4939091;28;20039;-65
2023/03/29 04:28:06;;;;;;;7.55;3.22;;;1.10;98.40;;;;;;4937769;28;20380;-65
2023/03/29 04:30:32;;;;;;;8.02;3.30;;;1.10;98.70;;;;;;4930129;28;20035;-65
2023/03/29 04:32:57;;;;;;;6.20;3.42;;;1.20;97.50;;;;;;4935180;28;20086;-65
2023/03/29 04:35:23;;;;;;;6.07;2.72;;;1.20;97.60;;;;;;4942479;28;20031;-65
2023/03/29 04:37:49;;;;;;;5.60;2.88;;;1.10;98.50;;;;;;4940909;28;20031;-66
2023/03/29 04:40:18;;;;;;;6.15;3.38;;;0.90;98.80;;;;;;4935798;28;20127;-65
2023/03/29 04:42:46;;;;;;;9.95;3.78;;;0.90;98.40;;;;;;4936131;28;20055;-65
2023/03/29 04:45:21;;;;;;;8.25;4.00;;;0.90;98.50;;;;;;4932977;28;20071;-65
2023/03/29 04:47:47;;;;;;;4.10;3.00;;;0.90;98.70;;;;;;4937892;28;20159;-65
2023/03/29 04:50:13;;;;;;;10.18;5.90;;;0.80;99.20;;;;;;4940669;28;20034;-65
2023/03/29 04:52:39;;;;;;;13.02;5.88;;;0.70;99.20;;;;;;4939476;28;20733;-64
2023/03/29 04:55:06;;;;;;;14.05;7.05;;;0.80;99.30;;;;;;4937745;28;20482;-65
2023/03/29 04:57:33;;;;;;;5.85;3.60;;;0.80;99.40;;;;;;4937272;28;20484;-65
2023/03/29 04:59:58;;;;;;;9.45;5.80;;;0.70;99.90;;;;;;4926885;28;20158;-64
2023/03/29 05:02:24;;;;;;;13.05;7.55;;;0.70;99.90;;;;;;4933418;28;20029;-65
2023/03/29 05:04:50;;;;;;;12.90;7.68;;;0.80;99.70;;;;;;4915878;28;20130;-65
2023/03/29 05:07:16;;;;;;;11.98;6.45;;;1.10;99.10;;;;;;4918229;28;20028;-65
2023/03/29 05:09:42;;;;;;;2.95;2.15;;;1.20;98.50;;;;;;4935249;28;20073;-65
2023/03/29 05:12:08;;;;;;;5.80;2.20;;;1.20;99.40;;;;;;4935096;28;20536;-66
2023/03/29 05:14:33;;;;;;;5.65;2.55;;;1.20;99.90;;;;;;4929456;28;20085;-65
2023/03/29 05:17:00;;;;;;;4.35;2.55;;;1.20;99.90;;;;;;4928501;28;20098;-72
2023/03/29 05:19:26;;;;;;;6.13;2.95;;;1.20;99.90;;;;;;4931084;28;20094;-71
2023/03/29 05:21:52;;;;;;;4.78;2.72;;;1.30;99.90;;;;;;4921950;28;20038;-72
2023/03/29 05:24:18;;;;;;;3.88;2.33;;;1.40;98.70;;;;;;4923587;28;20047;-72
2023/03/29 05:26:46;;;;;;;5.90;3.35;;;1.50;98.10;;;;;;4932679;28;20035;-72
2023/03/29 05:29:12;;;;;;;5.18;3.05;;;1.70;98.50;;;;;;4933311;28;20350;-72
2023/03/29 05:31:38;;;;;;;7.40;3.25;;;1.80;98.60;;;;;;4927897;28;20114;-74
2023/03/29 05:34:04;;;;;;;4.50;2.83;;;1.90;99.20;;;;;;4928713;28;20116;-75
2023/03/29 05:36:30;;;;;;;6.03;3.55;;;1.90;99.90;;;;;;4932358;28;20713;-75
2023/03/29 05:38:56;;;;;;;10.27;4.20;;;1.90;99.90;;;;;;4928040;28;20496;-72
2023/03/29 05:41:23;;;;;;;9.65;3.78;;;2.00;99.90;;;;;;4932372;28;20032;-72
2023/03/29 05:43:49;;;;;;;6.35;3.50;;;2.10;99.10;;;;;;4931227;28;20127;-74
2023/03/29 05:46:15;;;;;;;8.35;3.65;;;2.20;99.90;;;;;;4932746;28;20027;-73
2023/03/29 05:48:41;;;;;;;7.82;3.53;;;2.20;99.90;;;;;;4936911;28;20026;-77
2023/03/29 05:51:07;;;;;;;7.50;3.97;;;2.30;99.60;;;;;;4943783;28;20027;-76
2023/03/29 05:53:34;;;;;;;9.63;5.10;;;2.40;99.60;;;;;;4943248;28;20137;-76
2023/03/29 05:56:00;;;;;;;10.85;5.68;;;2.50;98.70;;;;;;4946645;28;20023;-77
2023/03/29 05:58:27;;;;;;;8.68;5.43;;;2.60;98.10;;;;;;4945843;28;20081;-74
2023/03/29 06:00:53;;;;;;;21.08;9.30;;;2.70;98.40;;;;;;4932751;28;20019;-75
2023/03/29 06:03:23;;;;;;;13.95;7.22;;;2.80;98.00;;;;;;4937956;28;20046;-77
2023/03/29 06:05:59;;;;;;;16.48;7.00;;;2.90;98.30;;;;;;4951185;28;20100;-77
2023/03/29 06:08:26;;;;;;;12.15;6.38;;;2.90;98.30;;;;;;4948946;28;20684;-79
2023/03/29 06:11:07;;;;;;;15.70;7.93;;;3.00;98.20;;;;;;4943782;28;20042;-75
2023/03/29 06:13:33;;;;;;;9.80;5.20;;;3.10;98.00;;;;;;4941683;28;20027;-78
2023/03/29 06:16:00;;;;;;;8.77;5.10;;;3.20;97.50;;;;;;4938749;28;20296;-65
2023/03/29 06:18:26;;;;;;;8.55;4.05;;;3.30;97.40;;;;;;4938063;28;20081;-66
2023/03/29 06:20:52;;;;;;;6.68;3.67;;;3.40;97.60;;;;;;4920929;28;20027;-66
2023/03/29 06:23:19;;;;;;;3.05;2.15;;;3.50;96.90;;;;;;4938770;28;20066;-67
2023/03/29 06:25:45;;;;;;;4.13;2.30;;;3.50;97.00;;;;;;4935842;28;20121;-66
2023/03/29 06:28:13;;;;;;;6.85;3.17;;;3.50;97.00;;;;;;4938890;28;20096;-67
2023/03/29 06:30:39;;;;;;;3.60;2.80;;;3.60;96.80;;;;;;4932930;28;21042;-66
2023/03/29 06:33:08;;;;;;;4.25;2.20;;;3.60;96.70;;;;;;4923433;28;20055;-66
2023/03/29 06:35:35;;;;;;;4.82;2.20;;;3.60;96.10;;;;;;4940472;28;20026;-66
2023/03/29 06:38:02;;;;;;;4.22;2.08;;;3.80;96.10;;;;;;4939850;28;20031;-67
2023/03/29 06:40:28;;;;;;;3.50;2.17;;;3.80;96.40;;;;;;4936915;28;20122;-66
2023/03/29 06:42:57;;;;;;;3.83;1.88;;;3.90;95.80;;;;;;4939353;28;20023;-67
2023/03/29 06:45:27;;;;;;;4.38;3.28;;;3.90;95.50;;;;;;4941890;28;20035;-67
2023/03/29 06:47:53;;;;;;;4.75;2.95;;;3.90;95.50;;;;;;4936410;28;20028;-65
2023/03/29 06:50:19;;;;;;;4.65;2.35;;;4.00;95.30;;;;;;4938012;28;20086;-66
2023/03/29 06:52:46;;;;;;;7.50;3.35;;;4.20;95.00;;;;;;4943179;28;20082;-66
2023/03/29 06:55:11;;;;;;;3.92;2.78;;;4.30;94.30;;;;;;4944123;28;20031;-66
2023/03/29 06:57:38;;;;;;;3.20;2.22;;;4.40;94.20;;;;;;4943271;28;20142;-66
2023/03/29 07:00:18;;;;;;;3.65;2.17;;;4.40;94.60;;;;;;4940171;28;20099;-65
2023/03/29 07:02:48;;;;;;;5.30;3.10;;;4.50;94.10;;;;;;4942986;28;20036;-66
2023/03/29 07:05:15;;;;;;;3.55;2.30;;;4.50;94.00;;;;;;4941763;28;20106;-65
2023/03/29 07:07:53;;;;;;;5.20;2.45;;;4.50;93.60;;;;;;4928002;28;20043;-66
2023/03/29 07:10:27;;;;;;;4.10;2.42;;;4.70;93.30;;;;;;4933179;28;20105;-65
2023/03/29 07:12:53;;;;;;;4.72;2.40;;;4.80;93.10;;;;;;4940763;28;20032;-67
2023/03/29 07:15:20;;;;;;;3.53;2.30;;;4.80;93.80;;;;;;4932788;28;20082;-66
2023/03/29 07:17:48;;;;;;;3.15;2.20;;;4.90;93.30;;;;;;4935881;28;20082;-66
2023/03/29 07:20:15;;;;;;;2.92;1.88;;;4.90;93.10;;;;;;4936499;28;20035;-66
2023/03/29 07:22:42;;;;;;;3.63;2.00;;;5.00;92.90;;;;;;4925681;28;20063;-66
2023/03/29 07:25:09;;;;;;;3.85;2.03;;;5.00;93.00;;;;;;4925786;28;20039;-66
2023/03/29 07:27:41;;;;;;;3.28;1.83;;;5.10;92.90;;;;;;4923498;28;20031;-65
2023/03/29 07:30:09;;;;;;;7.15;1.90;;;5.20;92.90;;;;;;4933405;28;20032;-65
2023/03/29 07:32:39;;;;;;;2.72;1.27;;;5.30;92.50;;;;;;4917542;28;20043;-66
2023/03/29 07:35:06;;;;;;;3.80;1.90;;;5.40;91.00;;;;;;4934835;28;20031;-66
2023/03/29 07:37:33;;;;;;;3.63;2.38;;;5.40;91.90;;;;;;4929934;28;20078;-66
2023/03/29 07:39:59;;;;;;;5.07;2.83;;;5.40;92.10;;;;;;4933363;28;20034;-66
2023/03/29 07:42:26;;;;;;;7.13;4.47;;;5.50;91.70;;;;;;4930277;28;20043;-65
2023/03/29 07:44:53;;;;;;;4.18;3.00;;;5.60;91.90;;;;;;4929620;28;20405;-65
2023/03/29 07:47:18;;;;;;;3.42;2.42;;;5.70;91.60;;;;;;4933889;28;20058;-66
2023/03/29 07:49:45;;;;;;;2.72;2.10;;;5.70;91.20;;;;;;4933157;28;20130;-83
2023/03/29 08:41:57;;;;;;;0.95;0.57;;;7.00;70.50;;;;;;4959127;28;20121;-76
2023/03/29 09:05:34;;;;;;;0.50;0.45;;;7.70;65.50;;;;;;4991715;28;20746;-76
2023/03/29 09:10:43;;;;;;;1.98;0.80;;;7.50;63.90;;;;;;4984689;28;20053;-76
2023/03/29 09:13:37;;;;;;;0.80;0.65;;;7.40;61.90;;;;;;4981407;28;20097;-75
2023/03/29 09:16:33;;;;;;;10.13;6.38;;;7.40;59.80;;;;;;4968283;28;20042;-75
2023/03/29 09:19:11;;;;;;;1.15;0.80;;;7.40;59.60;;;;;;4955541;28;20034;-74
2023/03/29 09:22:08;;;;;;;10.15;8.55;;;7.50;61.60;;;;;;4985956;28;20665;-76
2023/03/29 09:24:49;;;;;;;3.53;2.22;;;7.50;59.60;;;;;;4979961;28;20058;-73
2023/03/29 09:27:26;;;;;;;2.17;1.60;;;7.60;58.70;;;;;;4987950;28;20049;-79
2023/03/29 09:30:03;;;;;;;3.00;2.55;;;7.70;57.70;;;;;;4978946;28;21498;-78
2023/03/29 09:32:36;;;;;;;2.80;1.10;;;7.70;57.90;;;;;;4978930;28;20054;-75
2023/03/29 09:35:18;;;;;;;3.10;0.88;;;7.70;58.60;;;;;;4963393;28;20026;-75
2023/03/29 09:37:46;;;;;;;1.58;0.75;;;7.70;59.70;;;;;;4967265;28;20125;-79
2023/03/29 09:40:16;;;;;;;2.30;0.93;;;7.70;60.40;;;;;;4981531;28;20606;-77
2023/03/29 09:42:44;;;;;;;1.92;0.80;;;7.70;61.90;;;;;;4979603;28;20038;-78
2023/03/29 09:45:10;;;;;;;1.08;0.82;;;8.00;63.70;;;;;;4974553;28;20057;-66
2023/03/29 09:47:43;;;;;;;2.95;2.15;;;8.10;61.10;;;;;;4982330;28;20058;-66
2023/03/29 09:50:15;;;;;;;2.00;0.70;;;8.30;62.50;;;;;;4974421;28;20045;-67
2023/03/29 09:52:41;;;;;;;1.58;0.52;;;8.50;67.10;;;;;;4985083;28;20014;-67
2023/03/29 09:55:12;;;;;;;3.28;0.57;;;8.60;62.60;;;;;;4974914;28;20026;-67
2023/03/29 09:57:37;;;;;;;2.00;0.63;;;8.40;65.50;;;;;;4977010;28;20041;-66
2023/03/29 10:00:04;;;;;;;10.95;5.35;;;8.40;66.40;;;;;;4986349;28;20046;-67
2023/03/29 10:02:31;;;;;;;1.50;0.70;;;8.40;65.50;;;;;;4984590;28;20260;-67
2023/03/29 10:05:02;;;;;;;1.65;0.60;;;8.60;63.50;;;;;;4982161;28;20162;-66
2023/03/29 10:07:52;;;;;;;1.23;0.70;;;8.60;63.20;;;;;;4984478;28;20865;-75
2023/03/29 10:10:26;;;;;;;1.75;0.57;;;8.70;63.00;;;;;;4984327;28;20128;-79
2023/03/29 10:12:58;;;;;;;0.68;0.52;;;8.70;63.20;;;;;;4981103;28;20046;-78
2023/03/29 10:15:28;;;;;;;2.35;0.50;;;8.90;66.40;;;;;;4974779;28;20045;-81
2023/03/29 10:17:59;;;;;;;1.75;1.17;;;9.20;66.30;;;;;;4979114;28;20100;-80
2023/03/29 10:20:25;;;;;;;1.35;0.95;;;9.40;66.50;;;;;;4979125;28;20084;-76
2023/03/29 10:22:57;;;;;;;5.97;4.32;;;9.40;65.40;;;;;;4973318;28;20070;-76
2023/03/29 10:25:31;;;;;;;2.20;1.05;;;9.40;61.70;;;;;;4986003;28;20613;-75
2023/03/29 10:28:10;;;;;;;0.85;0.70;;;9.40;64.00;;;;;;4982512;28;20065;-80
2023/03/29 10:30:37;;;;;;;2.97;0.80;;;9.60;62.40;;;;;;4982599;28;20544;-79
2023/03/29 10:33:05;;;;;;;4.45;0.85;;;9.70;62.70;;;;;;4980064;28;20041;-77
2023/03/29 10:35:40;;;;;;;2.20;0.80;;;9.60;63.70;;;;;;4988815;28;20038;-78
2023/03/29 10:38:13;;;;;;;2.67;0.82;;;9.70;65.10;;;;;;4982052;28;20125;-77
2023/03/29 10:40:45;;;;;;;3.47;0.90;;;9.90;63.50;;;;;;4987335;28;20029;-79
2023/03/29 10:43:28;;;;;;;2.55;2.22;;;9.90;60.20;;;;;;4983916;28;20108;-80
2023/03/29 10:45:56;;;;;;;2.10;1.00;;;9.60;68.30;;;;;;4986196;28;20045;-67
2023/03/29 10:48:30;;;;;;;1.95;0.98;;;9.50;64.30;;;;;;4972667;28;20030;-67
2023/03/29 10:51:04;;;;;;;3.60;2.20;;;9.60;65.00;;;;;;4983026;28;20863;-66
2023/03/29 10:53:36;;;;;;;2.63;0.73;;;9.90;63.90;;;;;;4976202;28;20046;-67
2023/03/29 10:56:24;;;;;;;3.35;1.40;;;10.20;61.60;;;;;;4979406;28;20145;-67
2023/03/29 10:59:12;;;;;;;1.92;1.10;;;10.50;61.50;;;;;;4964547;28;20185;-68
2023/03/29 11:02:03;;;;;;;5.20;3.75;;;10.60;61.80;;;;;;4956798;28;20112;-68
2023/03/29 11:04:38;;;;;;;2.17;0.90;;;10.70;59.80;;;;;;4970745;28;20052;-67
2023/03/29 11:07:34;;;;;;;1.23;0.65;;;10.70;60.40;;;;;;4965925;28;20185;-67
2023/03/29 11:10:33;;;;;;;2.25;1.83;;;10.40;61.40;;;;;;4980784;28;20034;-68
2023/03/29 11:12:59;;;;;;;3.72;0.85;;;10.40;59.60;;;;;;4970357;28;20921;-68
2023/03/29 11:15:50;;;;;;;3.10;1.10;;;10.50;62.30;;;;;;4957810;28;20049;-67
2023/03/29 11:18:31;;;;;;;2.43;0.73;;;10.40;60.70;;;;;;4976994;28;20046;-68
2023/03/29 11:21:25;;;;;;;8.20;3.78;;;10.60;63.20;;;;;;4974227;28;20425;-68
2023/03/29 11:24:08;;;;;;;4.70;3.78;;;10.80;63.80;;;;;;4970873;28;20031;-68
2023/03/29 11:27:01;;;;;;;5.97;2.90;;;10.80;62.10;;;;;;4978914;28;20031;-68
2023/03/29 11:29:33;;;;;;;1.90;1.10;;;10.80;66.00;;;;;;4979046;28;20124;-68
2023/03/29 11:32:17;;;;;;;2.70;1.00;;;11.00;64.00;;;;;;4974828;28;20140;-66
2023/03/29 11:35:17;;;;;;;3.00;0.82;;;11.10;61.70;;;;;;4975753;28;20045;-68
2023/03/29 11:38:14;;;;;;;1.65;0.98;;;11.10;62.50;;;;;;4972820;28;20105;-67
2023/03/29 11:40:58;;;;;;;8.02;1.10;;;11.00;60.60;;;;;;4976508;28;20069;-67
2023/03/29 11:43:36;;;;;;;2.25;0.90;;;10.80;61.10;;;;;;4978256;28;20041;-67
2023/03/29 11:46:11;;;;;;;2.38;0.82;;;10.70;61.10;;;;;;4969760;28;20426;-67
2023/03/29 11:48:46;;;;;;;6.55;1.52;;;10.60;61.00;;;;;;4964263;28;20049;-67
2023/03/29 11:51:35;;;;;;;5.32;2.08;;;10.40;62.50;;;;;;4956989;28;20042;-68
2023/03/29 11:54:06;;;;;;;2.75;1.25;;;10.40;60.70;;;;;;4979556;28;20026;-67
2023/03/29 11:57:06;;;;;;;1.87;0.90;;;10.40;61.10;;;;;;4982685;28;20141;-76
2023/03/29 11:59:42;;;;;;;3.50;1.48;;;10.60;62.70;;;;;;4981152;28;21619;-77
2023/03/29 12:02:26;;;;;;;3.08;1.10;;;10.80;62.60;;;;;;4975264;28;20065;-75
2023/03/29 12:04:55;;;;;;;4.57;1.67;;;11.10;65.20;;;;;;4973754;28;20101;-73
2023/03/29 12:07:42;;;;;;;3.15;2.05;;;11.30;65.80;;;;;;4978337;28;20029;-76
2023/03/29 12:10:25;;;;;;;2.17;1.10;;;11.50;59.20;;;;;;4953126;28;20514;-76
2023/03/29 12:12:56;;;;;;;2.97;1.45;;;11.60;60.20;;;;;;4967066;28;20038;-74
2023/03/29 12:15:25;;;;;;;2.05;0.93;;;11.40;62.50;;;;;;4973030;28;20101;-74
2023/03/29 12:18:15;;;;;;;3.10;1.30;;;11.30;58.30;;;;;;4966166;28;20034;-74
2023/03/29 12:20:41;;;;;;;2.80;1.20;;;11.30;62.70;;;;;;4950388;28;20499;-74
2023/03/29 12:23:13;;;;;;;3.47;1.60;;;11.30;63.40;;;;;;4972437;28;20038;-75
2023/03/29 12:25:57;;;;;;;3.30;1.48;;;11.20;59.80;;;;;;4966293;28;20052;-78
2023/03/29 12:28:53;;;;;;;4.35;2.55;;;10.90;60.60;;;;;;4965035;28;20027;-80
2023/03/29 12:31:43;;;;;;;4.13;1.20;;;10.80;62.20;;;;;;4972083;28;20038;-81
2023/03/29 12:34:29;;;;;;;3.00;1.05;;;10.90;63.20;;;;;;4979179;28;20062;-80
2023/03/29 12:37:05;;;;;;;2.38;1.08;;;10.90;61.00;;;;;;4971283;28;20034;-67
2023/03/29 12:39:32;;;;;;;1.95;1.00;;;10.80;59.70;;;;;;4960550;28;20050;-78
2023/03/29 12:42:13;;;;;;;3.63;1.30;;;10.70;59.60;;;;;;4978403;28;21291;-80
2023/03/29 12:44:42;;;;;;;2.10;1.20;;;10.60;60.20;;;;;;4982648;28;20073;-78
2023/03/29 12:47:22;;;;;;;2.58;1.42;;;10.50;61.10;;;;;;4971172;28;20112;-81
2023/03/29 12:49:52;;;;;;;5.07;1.58;;;10.50;59.60;;;;;;4969005;28;20038;-68
2023/03/29 12:52:35;;;;;;;2.08;1.10;;;10.50;61.10;;;;;;4962117;28;20128;-78
2023/03/29 12:55:16;;;;;;;2.72;1.20;;;10.60;59.60;;;;;;4975197;28;20074;-75
2023/03/29 12:57:44;;;;;;;1.92;1.30;;;10.60;60.90;;;;;;4958184;28;25069;-74
2023/03/29 13:00:31;;;;;;;3.78;1.80;;;10.70;61.50;;;;;;4959459;28;20057;-75
2023/03/29 13:03:02;;;;;;;2.25;1.05;;;11.10;62.00;;;;;;4977076;28;20045;-76
2023/03/29 13:05:35;;;;;;;3.63;1.17;;;11.20;59.50;;;;;;4970478;28;20046;-76
2023/03/29 13:08:19;;;;;;;3.33;1.20;;;11.30;61.70;;;;;;4978242;28;20043;-80
2023/03/29 13:10:52;;;;;;;9.00;7.05;;;11.40;58.70;;;;;;4976398;28;20053;-80
2023/03/29 13:13:23;;;;;;;3.03;1.70;;;11.30;60.00;;;;;;4960440;28;20157;-79
2023/03/29 13:15:49;;;;;;;3.15;1.67;;;11.50;59.60;;;;;;4943382;28;20074;-68
2023/03/29 13:18:24;;;;;;;4.93;1.30;;;11.60;59.20;;;;;;4951180;28;20092;-69
2023/03/29 13:21:27;;;;;;;3.45;1.30;;;11.60;58.10;;;;;;4973507;28;20049;-68
2023/03/29 13:23:58;;;;;;;3.00;1.42;;;11.50;60.70;;;;;;4962851;28;20046;-68
2023/03/29 13:26:43;;;;;;;1.08;0.98;;;11.50;59.10;;;;;;4974800;28;20054;-66
2023/03/29 13:29:22;;;;;;;1.52;1.10;;;11.40;59.60;;;;;;4977903;28;20034;-67
2023/03/29 13:32:17;;;;;;;2.45;1.40;;;11.40;59.70;;;;;;4967312;28;20046;-82
2023/03/29 13:35:00;;;;;;;2.15;1.25;;;11.10;57.00;;;;;;4956760;28;20038;-76
2023/03/29 13:37:38;;;;;;;1.67;1.00;;;11.00;58.90;;;;;;4962273;28;20049;-78
2023/03/29 13:40:30;;;;;;;6.13;1.17;;;10.70;58.40;;;;;;4967965;28;20114;-75
2023/03/29 13:43:00;;;;;;;2.92;1.40;;;10.70;58.40;;;;;;4963959;28;20035;-79
2023/03/29 13:45:30;;;;;;;2.85;1.10;;;10.70;58.20;;;;;;4970276;28;20531;-77
2023/03/29 13:48:19;;;;;;;2.28;1.20;;;10.60;57.80;;;;;;4979327;28;20041;-76
2023/03/29 13:50:53;;;;;;;2.22;1.42;;;10.50;58.00;;;;;;4961326;28;20102;-83
2023/03/29 13:53:33;;;;;;;1.55;1.23;;;10.50;58.70;;;;;;4970146;28;20129;-66
2023/03/29 13:55:59;;;;;;;4.90;1.38;;;10.40;57.60;;;;;;4974723;28;20080;-66
2023/03/29 13:58:28;;;;;;;3.28;1.45;;;10.30;57.40;;;;;;4956151;28;20038;-65
2023/03/29 14:01:06;;;;;;;1.80;1.17;;;10.20;57.50;;;;;;4962769;28;21867;-66
2023/03/29 14:03:41;;;;;;;2.20;1.20;;;10.20;58.20;;;;;;4967120;28;20770;-66
2023/03/29 14:06:09;;;;;;;3.70;1.05;;;10.20;57.00;;;;;;4969405;28;20054;-66
2023/03/29 14:08:42;;;;;;;2.65;1.40;;;10.30;58.90;;;;;;4976849;28;20033;-66
2023/03/29 14:11:25;;;;;;;3.28;1.23;;;10.30;58.20;;;;;;4954408;28;20531;-67
2023/03/29 14:13:56;;;;;;;2.33;1.45;;;10.40;58.10;;;;;;4973615;28;20104;-66
2023/03/29 14:16:25;;;;;;;1.95;0.98;;;10.40;58.30;;;;;;4981819;28;20030;-66
2023/03/29 14:18:52;;;;;;;1.73;1.38;;;10.50;58.20;;;;;;4974159;28;20031;-67
2023/03/29 14:21:20;;;;;;;2.13;1.10;;;10.50;58.70;;;;;;4973210;28;21105;-67
2023/03/29 14:23:52;;;;;;;3.80;1.40;;;10.50;58.10;;;;;;4967564;28;20145;-65
2023/03/29 14:26:21;;;;;;;2.75;1.48;;;10.60;59.30;;;;;;4965671;28;20042;-67
2023/03/29 14:28:47;;;;;;;2.22;1.20;;;10.60;57.00;;;;;;4969071;28;20130;-66
2023/03/29 14:31:22;;;;;;;3.85;1.33;;;10.70;58.20;;;;;;4957926;28;20048;-66
2023/03/29 14:33:55;;;;;;;4.35;1.23;;;10.70;59.80;;;;;;4947344;28;20053;-64